sensor_id;sensor_type;location;lat;lon;timestamp;P1;durP1;ratioP1;P2;durP2;ratioP2
46755;SDS011;32506;52.826;-1.192;2023-02-28T00:01:18;4.18;;;1.70;;
46755;SDS011;32506;52.826;-1.192;2023-02-28T00:03:43;3.92;;;1.85;;
46755;SDS011;32506;52.826;-1.192;2023-02-28T00:06:08;2.60;;;1.80;;
46755;SDS011;32506;52.826;-1.192;2023-02-28T00:08:35;3.05;;;1.60;;
46755;SDS011;32506;52.826;-1.192;2023-02-28T00:11:04;2.95;;;1.42;;
46755;SDS011;32506;52.826;-1.192;2023-02-28T00:13:32;5.00;;;3.28;;
46755;SDS011;32506;52.826;-1.192;2023-02-28T00:16:04;4.65;;;1.95;;
46755;SDS011;32506;52.826;-1.192;2023-02-28T00:18:32;2.75;;;1.60;;
46755;SDS011;32506;52.826;-1.192;2023-02-28T00:20:58;2.90;;;1.70;;
46755;SDS011;32506;52.826;-1.192;2023-02-28T00:23:24;3.70;;;2.00;;
46755;SDS011;32506;52.826;-1.192;2023-02-28T00:25:50;3.08;;;1.88;;
46755;SDS011;32506;52.826;-1.192;2023-02-28T00:28:16;3.00;;;1.67;;
46755;SDS011;32506;52.826;-1.192;2023-02-28T00:30:42;5.07;;;2.30;;
46755;SDS011;32506;52.826;-1.192;2023-02-28T00:33:08;2.88;;;2.05;;
46755;SDS011;32506;52.826;-1.192;2023-02-28T00:35:33;2.80;;;1.70;;
46755;SDS011;32506;52.826;-1.192;2023-02-28T00:37:59;3.67;;;1.98;;
46755;SDS011;32506;52.826;-1.192;2023-02-28T00:40:24;5.30;;;1.83;;
46755;SDS011;32506;52.826;-1.192;2023-02-28T00:42:50;3.97;;;1.90;;
46755;SDS011;32506;52.826;-1.192;2023-02-28T00:45:15;5.95;;;2.10;;
46755;SDS011;32506;52.826;-1.192;2023-02-28T00:47:41;3.92;;;2.10;;
46755;SDS011;32506;52.826;-1.192;2023-02-28T00:50:06;3.17;;;1.83;;
46755;SDS011;32506;52.826;-1.192;2023-02-28T00:52:33;3.58;;;1.70;;
46755;SDS011;32506;52.826;-1.192;2023-02-28T00:54:58;3.53;;;2.17;;
46755;SDS011;32506;52.826;-1.192;2023-02-28T00:57:24;3.65;;;2.05;;
46755;SDS011;32506;52.826;-1.192;2023-02-28T00:59:49;2.45;;;1.80;;
46755;SDS011;32506;52.826;-1.192;2023-02-28T01:02:15;3.03;;;1.90;;
46755;SDS011;32506;52.826;-1.192;2023-02-28T01:04:41;3.78;;;1.77;;
46755;SDS011;32506;52.826;-1.192;2023-02-28T01:07:06;3.50;;;1.65;;
46755;SDS011;32506;52.826;-1.192;2023-02-28T01:09:32;3.33;;;1.75;;
46755;SDS011;32506;52.826;-1.192;2023-02-28T01:11:57;3.60;;;2.25;;
46755;SDS011;32506;52.826;-1.192;2023-02-28T01:14:23;3.90;;;1.83;;
46755;SDS011;32506;52.826;-1.192;2023-02-28T01:16:48;4.38;;;1.98;;
46755;SDS011;32506;52.826;-1.192;2023-02-28T01:19:14;2.97;;;1.88;;
46755;SDS011;32506;52.826;-1.192;2023-02-28T01:21:39;3.58;;;1.77;;
46755;SDS011;32506;52.826;-1.192;2023-02-28T01:24:05;3.33;;;2.05;;
46755;SDS011;32506;52.826;-1.192;2023-02-28T01:26:32;2.53;;;1.70;;
46755;SDS011;32506;52.826;-1.192;2023-02-28T01:28:57;2.92;;;2.08;;
46755;SDS011;32506;52.826;-1.192;2023-02-28T01:31:23;2.50;;;1.77;;
46755;SDS011;32506;52.826;-1.192;2023-02-28T01:33:48;2.92;;;1.65;;
46755;SDS011;32506;52.826;-1.192;2023-02-28T01:36:15;2.97;;;2.00;;
46755;SDS011;32506;52.826;-1.192;2023-02-28T01:38:48;3.67;;;1.60;;
46755;SDS011;32506;52.826;-1.192;2023-02-28T01:41:16;3.22;;;1.73;;
46755;SDS011;32506;52.826;-1.192;2023-02-28T01:43:53;3.13;;;1.80;;
46755;SDS011;32506;52.826;-1.192;2023-02-28T01:46:37;3.17;;;1.90;;
46755;SDS011;32506;52.826;-1.192;2023-02-28T01:51:41;3.08;;;1.65;;
46755;SDS011;32506;52.826;-1.192;2023-02-28T01:54:20;4.40;;;1.60;;
46755;SDS011;32506;52.826;-1.192;2023-02-28T01:56:56;4.22;;;2.70;;
46755;SDS011;32506;52.826;-1.192;2023-02-28T01:59:31;3.85;;;1.58;;
46755;SDS011;32506;52.826;-1.192;2023-02-28T02:02:00;2.20;;;1.48;;
46755;SDS011;32506;52.826;-1.192;2023-02-28T02:04:30;2.70;;;1.60;;
46755;SDS011;32506;52.826;-1.192;2023-02-28T02:07:04;2.70;;;1.70;;
46755;SDS011;32506;52.826;-1.192;2023-02-28T02:09:29;4.20;;;1.77;;
46755;SDS011;32506;52.826;-1.192;2023-02-28T02:11:55;4.40;;;1.38;;
46755;SDS011;32506;52.826;-1.192;2023-02-28T02:17:21;2.80;;;1.60;;
46755;SDS011;32506;52.826;-1.192;2023-02-28T02:20:08;3.42;;;1.30;;
46755;SDS011;32506;52.826;-1.192;2023-02-28T02:36:42;2.35;;;1.52;;
46755;SDS011;32506;52.826;-1.192;2023-02-28T02:42:01;2.25;;;1.50;;
46755;SDS011;32506;52.826;-1.192;2023-02-28T02:44:41;2.70;;;1.40;;
46755;SDS011;32506;52.826;-1.192;2023-02-28T02:47:12;2.10;;;1.30;;
46755;SDS011;32506;52.826;-1.192;2023-02-28T02:49:42;3.10;;;1.45;;
46755;SDS011;32506;52.826;-1.192;2023-02-28T02:52:12;2.75;;;1.38;;
46755;SDS011;32506;52.826;-1.192;2023-02-28T02:54:43;4.70;;;1.80;;
46755;SDS011;32506;52.826;-1.192;2023-02-28T02:57:13;2.20;;;1.30;;
46755;SDS011;32506;52.826;-1.192;2023-02-28T02:59:44;1.73;;;1.33;;
46755;SDS011;32506;52.826;-1.192;2023-02-28T03:02:11;3.35;;;1.50;;
46755;SDS011;32506;52.826;-1.192;2023-02-28T03:04:43;3.15;;;1.50;;
46755;SDS011;32506;52.826;-1.192;2023-02-28T03:07:12;3.88;;;1.65;;
46755;SDS011;32506;52.826;-1.192;2023-02-28T03:09:38;2.92;;;1.42;;
46755;SDS011;32506;52.826;-1.192;2023-02-28T03:12:03;2.67;;;1.52;;
46755;SDS011;32506;52.826;-1.192;2023-02-28T03:20:01;3.78;;;1.58;;
46755;SDS011;32506;52.826;-1.192;2023-02-28T03:22:40;2.95;;;1.60;;
46755;SDS011;32506;52.826;-1.192;2023-02-28T03:25:41;3.55;;;1.80;;
46755;SDS011;32506;52.826;-1.192;2023-02-28T03:33:30;3.08;;;1.80;;
46755;SDS011;32506;52.826;-1.192;2023-02-28T03:36:18;2.50;;;1.60;;
46755;SDS011;32506;52.826;-1.192;2023-02-28T03:38:51;3.47;;;1.77;;
46755;SDS011;32506;52.826;-1.192;2023-02-28T03:41:30;2.80;;;1.75;;
46755;SDS011;32506;52.826;-1.192;2023-02-28T03:44:06;3.33;;;1.77;;
46755;SDS011;32506;52.826;-1.192;2023-02-28T03:46:40;4.03;;;1.70;;
46755;SDS011;32506;52.826;-1.192;2023-02-28T03:49:22;2.75;;;1.90;;
46755;SDS011;32506;52.826;-1.192;2023-02-28T03:51:52;3.45;;;1.88;;
46755;SDS011;32506;52.826;-1.192;2023-02-28T03:54:23;3.85;;;1.98;;
46755;SDS011;32506;52.826;-1.192;2023-02-28T03:57:05;4.22;;;1.70;;
46755;SDS011;32506;52.826;-1.192;2023-02-28T03:59:47;2.10;;;1.27;;
46755;SDS011;32506;52.826;-1.192;2023-02-28T04:02:18;2.80;;;1.65;;
46755;SDS011;32506;52.826;-1.192;2023-02-28T04:04:43;2.63;;;1.30;;
46755;SDS011;32506;52.826;-1.192;2023-02-28T04:07:10;2.70;;;1.60;;
46755;SDS011;32506;52.826;-1.192;2023-02-28T04:09:36;2.83;;;1.65;;
46755;SDS011;32506;52.826;-1.192;2023-02-28T04:12:02;2.10;;;1.65;;
46755;SDS011;32506;52.826;-1.192;2023-02-28T04:14:28;4.13;;;1.75;;
46755;SDS011;32506;52.826;-1.192;2023-02-28T04:16:53;2.92;;;1.77;;
46755;SDS011;32506;52.826;-1.192;2023-02-28T04:19:19;2.75;;;2.10;;
46755;SDS011;32506;52.826;-1.192;2023-02-28T04:21:45;3.25;;;2.28;;
46755;SDS011;32506;52.826;-1.192;2023-02-28T04:24:19;2.75;;;1.80;;
46755;SDS011;32506;52.826;-1.192;2023-02-28T04:26:47;5.05;;;1.98;;
46755;SDS011;32506;52.826;-1.192;2023-02-28T04:29:20;2.75;;;1.80;;
46755;SDS011;32506;52.826;-1.192;2023-02-28T04:31:50;2.35;;;1.80;;
46755;SDS011;32506;52.826;-1.192;2023-02-28T04:34:18;2.65;;;1.85;;
46755;SDS011;32506;52.826;-1.192;2023-02-28T04:36:44;4.30;;;2.45;;
46755;SDS011;32506;52.826;-1.192;2023-02-28T04:39:10;2.97;;;2.03;;
46755;SDS011;32506;52.826;-1.192;2023-02-28T04:41:36;3.10;;;2.00;;
46755;SDS011;32506;52.826;-1.192;2023-02-28T04:44:01;3.55;;;2.30;;
46755;SDS011;32506;52.826;-1.192;2023-02-28T04:46:27;3.92;;;2.40;;
46755;SDS011;32506;52.826;-1.192;2023-02-28T04:48:52;2.83;;;2.03;;
46755;SDS011;32506;52.826;-1.192;2023-02-28T04:51:19;3.42;;;2.08;;
46755;SDS011;32506;52.826;-1.192;2023-02-28T04:53:45;3.72;;;2.22;;
46755;SDS011;32506;52.826;-1.192;2023-02-28T04:56:12;3.45;;;1.88;;
46755;SDS011;32506;52.826;-1.192;2023-02-28T04:58:39;3.85;;;1.98;;
46755;SDS011;32506;52.826;-1.192;2023-02-28T05:03:50;3.80;;;2.20;;
46755;SDS011;32506;52.826;-1.192;2023-02-28T05:06:16;6.57;;;2.75;;
46755;SDS011;32506;52.826;-1.192;2023-02-28T05:08:42;3.25;;;2.22;;
46755;SDS011;32506;52.826;-1.192;2023-02-28T05:11:28;4.68;;;2.33;;
46755;SDS011;32506;52.826;-1.192;2023-02-28T05:13:58;4.47;;;2.05;;
46755;SDS011;32506;52.826;-1.192;2023-02-28T05:16:24;4.53;;;2.35;;
46755;SDS011;32506;52.826;-1.192;2023-02-28T05:18:49;3.95;;;2.30;;
46755;SDS011;32506;52.826;-1.192;2023-02-28T05:23:55;4.07;;;2.60;;
46755;SDS011;32506;52.826;-1.192;2023-02-28T05:26:22;4.68;;;2.95;;
46755;SDS011;32506;52.826;-1.192;2023-02-28T05:28:48;6.72;;;3.25;;
46755;SDS011;32506;52.826;-1.192;2023-02-28T05:31:14;3.00;;;2.10;;
46755;SDS011;32506;52.826;-1.192;2023-02-28T05:33:40;5.70;;;2.67;;
46755;SDS011;32506;52.826;-1.192;2023-02-28T05:36:05;3.95;;;2.45;;
46755;SDS011;32506;52.826;-1.192;2023-02-28T05:38:32;5.80;;;2.92;;
46755;SDS011;32506;52.826;-1.192;2023-02-28T05:40:57;4.40;;;2.38;;
46755;SDS011;32506;52.826;-1.192;2023-02-28T05:43:23;4.55;;;3.10;;
46755;SDS011;32506;52.826;-1.192;2023-02-28T05:45:48;4.00;;;2.80;;
46755;SDS011;32506;52.826;-1.192;2023-02-28T05:48:14;5.35;;;3.40;;
46755;SDS011;32506;52.826;-1.192;2023-02-28T05:50:39;5.35;;;2.95;;
46755;SDS011;32506;52.826;-1.192;2023-02-28T05:53:05;4.10;;;2.78;;
46755;SDS011;32506;52.826;-1.192;2023-02-28T05:55:31;4.22;;;3.08;;
46755;SDS011;32506;52.826;-1.192;2023-02-28T05:57:56;4.78;;;2.80;;
46755;SDS011;32506;52.826;-1.192;2023-02-28T06:00:22;5.15;;;3.40;;
46755;SDS011;32506;52.826;-1.192;2023-02-28T06:02:48;4.35;;;2.88;;
46755;SDS011;32506;52.826;-1.192;2023-02-28T06:05:14;4.22;;;2.80;;
46755;SDS011;32506;52.826;-1.192;2023-02-28T06:07:41;3.50;;;2.53;;
46755;SDS011;32506;52.826;-1.192;2023-02-28T06:10:08;5.00;;;2.80;;
46755;SDS011;32506;52.826;-1.192;2023-02-28T06:12:35;5.57;;;2.72;;
46755;SDS011;32506;52.826;-1.192;2023-02-28T06:15:00;4.47;;;3.22;;
46755;SDS011;32506;52.826;-1.192;2023-02-28T06:17:26;3.53;;;2.58;;
46755;SDS011;32506;52.826;-1.192;2023-02-28T06:19:51;4.53;;;2.97;;
46755;SDS011;32506;52.826;-1.192;2023-02-28T06:22:16;4.20;;;2.92;;
46755;SDS011;32506;52.826;-1.192;2023-02-28T06:24:42;4.32;;;2.72;;
46755;SDS011;32506;52.826;-1.192;2023-02-28T06:27:08;3.80;;;2.67;;
46755;SDS011;32506;52.826;-1.192;2023-02-28T06:29:33;3.72;;;2.50;;
46755;SDS011;32506;52.826;-1.192;2023-02-28T06:31:59;3.20;;;2.42;;
46755;SDS011;32506;52.826;-1.192;2023-02-28T06:34:25;4.03;;;2.30;;
46755;SDS011;32506;52.826;-1.192;2023-02-28T06:36:51;2.92;;;2.00;;
46755;SDS011;32506;52.826;-1.192;2023-02-28T06:39:17;4.72;;;2.83;;
46755;SDS011;32506;52.826;-1.192;2023-02-28T06:41:43;4.28;;;3.05;;
46755;SDS011;32506;52.826;-1.192;2023-02-28T06:44:17;4.35;;;2.78;;
46755;SDS011;32506;52.826;-1.192;2023-02-28T06:46:43;3.72;;;2.63;;
46755;SDS011;32506;52.826;-1.192;2023-02-28T06:49:10;3.47;;;2.47;;
46755;SDS011;32506;52.826;-1.192;2023-02-28T06:51:37;4.53;;;2.70;;
46755;SDS011;32506;52.826;-1.192;2023-02-28T06:54:06;3.90;;;2.65;;
46755;SDS011;32506;52.826;-1.192;2023-02-28T06:56:34;3.85;;;2.20;;
46755;SDS011;32506;52.826;-1.192;2023-02-28T06:59:00;3.63;;;2.22;;
46755;SDS011;32506;52.826;-1.192;2023-02-28T07:01:26;3.85;;;2.35;;
46755;SDS011;32506;52.826;-1.192;2023-02-28T07:03:53;5.50;;;3.22;;
46755;SDS011;32506;52.826;-1.192;2023-02-28T07:06:19;4.25;;;2.67;;
46755;SDS011;32506;52.826;-1.192;2023-02-28T07:08:47;3.45;;;2.50;;
46755;SDS011;32506;52.826;-1.192;2023-02-28T07:11:13;3.53;;;2.53;;
46755;SDS011;32506;52.826;-1.192;2023-02-28T07:13:39;4.38;;;2.83;;
46755;SDS011;32506;52.826;-1.192;2023-02-28T07:16:06;3.42;;;2.35;;
46755;SDS011;32506;52.826;-1.192;2023-02-28T07:18:34;6.00;;;2.40;;
46755;SDS011;32506;52.826;-1.192;2023-02-28T07:21:03;4.70;;;2.78;;
46755;SDS011;32506;52.826;-1.192;2023-02-28T07:23:30;4.57;;;2.67;;
46755;SDS011;32506;52.826;-1.192;2023-02-28T07:25:56;3.47;;;2.50;;
46755;SDS011;32506;52.826;-1.192;2023-02-28T07:28:21;3.95;;;2.78;;
46755;SDS011;32506;52.826;-1.192;2023-02-28T07:30:47;4.07;;;2.70;;
46755;SDS011;32506;52.826;-1.192;2023-02-28T07:33:13;3.63;;;2.40;;
46755;SDS011;32506;52.826;-1.192;2023-02-28T07:35:39;3.50;;;2.75;;
46755;SDS011;32506;52.826;-1.192;2023-02-28T07:38:05;4.40;;;2.70;;
46755;SDS011;32506;52.826;-1.192;2023-02-28T07:40:32;4.85;;;2.65;;
46755;SDS011;32506;52.826;-1.192;2023-02-28T07:42:59;2.95;;;2.25;;
46755;SDS011;32506;52.826;-1.192;2023-02-28T07:45:25;3.50;;;2.38;;
46755;SDS011;32506;52.826;-1.192;2023-02-28T07:47:51;3.47;;;2.55;;
46755;SDS011;32506;52.826;-1.192;2023-02-28T07:50:16;3.45;;;2.50;;
46755;SDS011;32506;52.826;-1.192;2023-02-28T07:52:42;2.95;;;2.15;;
46755;SDS011;32506;52.826;-1.192;2023-02-28T07:55:08;3.10;;;2.10;;
46755;SDS011;32506;52.826;-1.192;2023-02-28T07:57:34;3.35;;;2.17;;
46755;SDS011;32506;52.826;-1.192;2023-02-28T08:00:00;2.80;;;1.95;;
46755;SDS011;32506;52.826;-1.192;2023-02-28T08:02:26;2.15;;;1.45;;
46755;SDS011;32506;52.826;-1.192;2023-02-28T08:04:51;2.40;;;1.77;;
46755;SDS011;32506;52.826;-1.192;2023-02-28T08:07:17;2.88;;;2.00;;
46755;SDS011;32506;52.826;-1.192;2023-02-28T08:09:43;2.40;;;1.80;;
46755;SDS011;32506;52.826;-1.192;2023-02-28T08:12:10;2.53;;;1.65;;
46755;SDS011;32506;52.826;-1.192;2023-02-28T08:14:36;3.17;;;1.45;;
46755;SDS011;32506;52.826;-1.192;2023-02-28T08:17:02;2.47;;;1.55;;
46755;SDS011;32506;52.826;-1.192;2023-02-28T08:19:28;2.92;;;1.80;;
46755;SDS011;32506;52.826;-1.192;2023-02-28T08:21:54;2.17;;;1.33;;
46755;SDS011;32506;52.826;-1.192;2023-02-28T08:24:19;2.70;;;1.40;;
46755;SDS011;32506;52.826;-1.192;2023-02-28T08:26:45;2.20;;;1.63;;
46755;SDS011;32506;52.826;-1.192;2023-02-28T08:29:11;2.42;;;1.27;;
46755;SDS011;32506;52.826;-1.192;2023-02-28T08:31:36;1.98;;;1.30;;
46755;SDS011;32506;52.826;-1.192;2023-02-28T08:34:06;2.40;;;1.50;;
46755;SDS011;32506;52.826;-1.192;2023-02-28T08:36:32;2.50;;;1.30;;
46755;SDS011;32506;52.826;-1.192;2023-02-28T08:38:58;2.08;;;1.20;;
46755;SDS011;32506;52.826;-1.192;2023-02-28T08:41:24;1.60;;;1.10;;
46755;SDS011;32506;52.826;-1.192;2023-02-28T08:43:51;2.30;;;1.23;;
46755;SDS011;32506;52.826;-1.192;2023-02-28T08:46:16;1.45;;;1.00;;
46755;SDS011;32506;52.826;-1.192;2023-02-28T08:48:42;0.85;;;0.80;;
46755;SDS011;32506;52.826;-1.192;2023-02-28T08:51:13;1.52;;;1.00;;
46755;SDS011;32506;52.826;-1.192;2023-02-28T08:53:46;1.30;;;1.00;;
46755;SDS011;32506;52.826;-1.192;2023-02-28T08:56:15;1.08;;;0.68;;
46755;SDS011;32506;52.826;-1.192;2023-02-28T08:58:45;1.08;;;0.77;;
46755;SDS011;32506;52.826;-1.192;2023-02-28T09:01:12;1.15;;;0.77;;
46755;SDS011;32506;52.826;-1.192;2023-02-28T09:03:40;0.90;;;0.70;;
46755;SDS011;32506;52.826;-1.192;2023-02-28T09:06:06;0.88;;;0.65;;
46755;SDS011;32506;52.826;-1.192;2023-02-28T09:08:33;0.75;;;0.60;;
46755;SDS011;32506;52.826;-1.192;2023-02-28T09:10:59;1.77;;;0.85;;
46755;SDS011;32506;52.826;-1.192;2023-02-28T09:13:25;0.73;;;0.60;;
46755;SDS011;32506;52.826;-1.192;2023-02-28T09:15:51;1.17;;;0.80;;
46755;SDS011;32506;52.826;-1.192;2023-02-28T09:18:18;2.15;;;0.80;;
46755;SDS011;32506;52.826;-1.192;2023-02-28T09:20:43;1.40;;;0.70;;
46755;SDS011;32506;52.826;-1.192;2023-02-28T09:23:10;3.05;;;1.33;;
46755;SDS011;32506;52.826;-1.192;2023-02-28T09:25:37;1.95;;;0.80;;
46755;SDS011;32506;52.826;-1.192;2023-02-28T09:28:03;0.50;;;0.50;;
46755;SDS011;32506;52.826;-1.192;2023-02-28T09:30:29;0.85;;;0.68;;
46755;SDS011;32506;52.826;-1.192;2023-02-28T09:32:55;1.10;;;0.60;;
46755;SDS011;32506;52.826;-1.192;2023-02-28T09:35:21;1.42;;;1.00;;
46755;SDS011;32506;52.826;-1.192;2023-02-28T09:37:50;1.35;;;0.80;;
46755;SDS011;32506;52.826;-1.192;2023-02-28T09:40:20;1.08;;;0.50;;
46755;SDS011;32506;52.826;-1.192;2023-02-28T09:42:47;0.98;;;0.70;;
46755;SDS011;32506;52.826;-1.192;2023-02-28T09:45:21;1.13;;;0.80;;
46755;SDS011;32506;52.826;-1.192;2023-02-28T09:47:49;1.25;;;0.93;;
46755;SDS011;32506;52.826;-1.192;2023-02-28T09:50:30;0.93;;;0.73;;
46755;SDS011;32506;52.826;-1.192;2023-02-28T09:53:06;0.90;;;0.70;;
46755;SDS011;32506;52.826;-1.192;2023-02-28T09:55:48;1.35;;;0.88;;
46755;SDS011;32506;52.826;-1.192;2023-02-28T09:58:37;1.00;;;0.82;;
46755;SDS011;32506;52.826;-1.192;2023-02-28T10:10:34;1.45;;;0.90;;
46755;SDS011;32506;52.826;-1.192;2023-02-28T10:13:31;1.20;;;0.70;;
46755;SDS011;32506;52.826;-1.192;2023-02-28T10:15:58;1.05;;;0.68;;
46755;SDS011;32506;52.826;-1.192;2023-02-28T10:18:30;1.35;;;0.80;;
46755;SDS011;32506;52.826;-1.192;2023-02-28T10:21:08;1.10;;;0.65;;
46755;SDS011;32506;52.826;-1.192;2023-02-28T10:23:43;1.70;;;0.70;;
46755;SDS011;32506;52.826;-1.192;2023-02-28T10:26:14;1.70;;;0.65;;
46755;SDS011;32506;52.826;-1.192;2023-02-28T10:28:41;0.63;;;0.50;;
46755;SDS011;32506;52.826;-1.192;2023-02-28T10:31:09;0.75;;;0.50;;
46755;SDS011;32506;52.826;-1.192;2023-02-28T10:33:38;1.25;;;0.52;;
46755;SDS011;32506;52.826;-1.192;2023-02-28T10:36:04;1.23;;;0.90;;
46755;SDS011;32506;52.826;-1.192;2023-02-28T10:38:36;1.10;;;0.60;;
46755;SDS011;32506;52.826;-1.192;2023-02-28T10:41:45;1.58;;;0.65;;
46755;SDS011;32506;52.826;-1.192;2023-02-28T10:46:54;1.38;;;0.60;;
46755;SDS011;32506;52.826;-1.192;2023-02-28T10:49:22;0.40;;;0.30;;
46755;SDS011;32506;52.826;-1.192;2023-02-28T10:51:52;0.85;;;0.60;;
46755;SDS011;32506;52.826;-1.192;2023-02-28T10:54:27;2.10;;;0.50;;
46755;SDS011;32506;52.826;-1.192;2023-02-28T10:57:06;0.85;;;0.45;;
46755;SDS011;32506;52.826;-1.192;2023-02-28T10:59:33;1.15;;;0.50;;
46755;SDS011;32506;52.826;-1.192;2023-02-28T11:01:58;1.95;;;0.30;;
46755;SDS011;32506;52.826;-1.192;2023-02-28T11:06:57;0.88;;;0.50;;
46755;SDS011;32506;52.826;-1.192;2023-02-28T11:09:27;2.10;;;0.50;;
46755;SDS011;32506;52.826;-1.192;2023-02-28T11:11:58;0.88;;;0.52;;
46755;SDS011;32506;52.826;-1.192;2023-02-28T11:14:25;0.70;;;0.50;;
46755;SDS011;32506;52.826;-1.192;2023-02-28T11:16:55;1.00;;;0.55;;
46755;SDS011;32506;52.826;-1.192;2023-02-28T11:19:27;0.43;;;0.38;;
46755;SDS011;32506;52.826;-1.192;2023-02-28T11:22:02;0.70;;;0.40;;
46755;SDS011;32506;52.826;-1.192;2023-02-28T11:27:05;1.52;;;0.30;;
46755;SDS011;32506;52.826;-1.192;2023-02-28T11:29:31;1.77;;;0.50;;
46755;SDS011;32506;52.826;-1.192;2023-02-28T11:32:19;0.80;;;0.43;;
46755;SDS011;32506;52.826;-1.192;2023-02-28T11:34:46;0.73;;;0.20;;
46755;SDS011;32506;52.826;-1.192;2023-02-28T11:37:25;0.35;;;0.35;;
46755;SDS011;32506;52.826;-1.192;2023-02-28T11:39:53;2.83;;;0.75;;
46755;SDS011;32506;52.826;-1.192;2023-02-28T11:56:44;1.13;;;0.70;;
46755;SDS011;32506;52.826;-1.192;2023-02-28T12:10:13;2.08;;;0.60;;
46755;SDS011;32506;52.826;-1.192;2023-02-28T12:29:26;0.80;;;0.30;;
46755;SDS011;32506;52.826;-1.192;2023-02-28T12:34:52;0.20;;;0.20;;
46755;SDS011;32506;52.826;-1.192;2023-02-28T12:40:22;1.38;;;0.63;;
46755;SDS011;32506;52.826;-1.192;2023-02-28T12:42:51;0.90;;;0.50;;
46755;SDS011;32506;52.826;-1.192;2023-02-28T12:45:22;1.35;;;0.50;;
46755;SDS011;32506;52.826;-1.192;2023-02-28T12:47:57;1.23;;;0.43;;
46755;SDS011;32506;52.826;-1.192;2023-02-28T12:50:28;0.90;;;0.30;;
46755;SDS011;32506;52.826;-1.192;2023-02-28T13:03:44;1.52;;;0.40;;
46755;SDS011;32506;52.826;-1.192;2023-02-28T13:09:24;0.93;;;0.40;;
46755;SDS011;32506;52.826;-1.192;2023-02-28T13:11:54;0.40;;;0.30;;
46755;SDS011;32506;52.826;-1.192;2023-02-28T13:14:34;1.83;;;0.50;;
46755;SDS011;32506;52.826;-1.192;2023-02-28T13:22:20;2.10;;;0.40;;
46755;SDS011;32506;52.826;-1.192;2023-02-28T13:25:01;0.73;;;0.22;;
46755;SDS011;32506;52.826;-1.192;2023-02-28T13:27:39;2.22;;;0.47;;
46755;SDS011;32506;52.826;-1.192;2023-02-28T13:38:54;1.05;;;0.25;;
46755;SDS011;32506;52.826;-1.192;2023-02-28T13:51:50;1.52;;;0.40;;
46755;SDS011;32506;52.826;-1.192;2023-02-28T14:02:40;0.80;;;0.38;;
46755;SDS011;32506;52.826;-1.192;2023-02-28T14:05:27;0.70;;;0.30;;
46755;SDS011;32506;52.826;-1.192;2023-02-28T14:07:57;0.50;;;0.30;;
46755;SDS011;32506;52.826;-1.192;2023-02-28T14:10:45;0.50;;;0.32;;
46755;SDS011;32506;52.826;-1.192;2023-02-28T14:16:00;1.00;;;0.40;;
46755;SDS011;32506;52.826;-1.192;2023-02-28T14:18:34;0.82;;;0.43;;
46755;SDS011;32506;52.826;-1.192;2023-02-28T14:21:08;0.52;;;0.30;;
46755;SDS011;32506;52.826;-1.192;2023-02-28T14:26:37;1.67;;;0.40;;
46755;SDS011;32506;52.826;-1.192;2023-02-28T14:37:38;0.32;;;0.30;;
46755;SDS011;32506;52.826;-1.192;2023-02-28T14:40:14;0.65;;;0.30;;
46755;SDS011;32506;52.826;-1.192;2023-02-28T14:42:46;1.52;;;0.32;;
46755;SDS011;32506;52.826;-1.192;2023-02-28T14:45:22;0.73;;;0.30;;
46755;SDS011;32506;52.826;-1.192;2023-02-28T14:47:51;0.63;;;0.40;;
46755;SDS011;32506;52.826;-1.192;2023-02-28T14:50:21;0.80;;;0.40;;
46755;SDS011;32506;52.826;-1.192;2023-02-28T14:52:52;0.75;;;0.40;;
46755;SDS011;32506;52.826;-1.192;2023-02-28T14:55:25;1.42;;;0.32;;
46755;SDS011;32506;52.826;-1.192;2023-02-28T14:57:55;0.77;;;0.30;;
46755;SDS011;32506;52.826;-1.192;2023-02-28T15:00:26;1.77;;;0.43;;
46755;SDS011;32506;52.826;-1.192;2023-02-28T15:02:54;2.67;;;0.60;;
46755;SDS011;32506;52.826;-1.192;2023-02-28T15:05:29;0.50;;;0.30;;
46755;SDS011;32506;52.826;-1.192;2023-02-28T15:08:03;1.25;;;0.40;;
46755;SDS011;32506;52.826;-1.192;2023-02-28T15:10:32;1.77;;;0.40;;
46755;SDS011;32506;52.826;-1.192;2023-02-28T15:12:59;1.42;;;0.50;;
46755;SDS011;32506;52.826;-1.192;2023-02-28T15:15:34;1.25;;;0.43;;
46755;SDS011;32506;52.826;-1.192;2023-02-28T15:20:48;0.77;;;0.45;;
46755;SDS011;32506;52.826;-1.192;2023-02-28T15:23:15;2.08;;;0.45;;
46755;SDS011;32506;52.826;-1.192;2023-02-28T15:25:43;0.52;;;0.30;;
46755;SDS011;32506;52.826;-1.192;2023-02-28T15:28:11;1.10;;;0.50;;
46755;SDS011;32506;52.826;-1.192;2023-02-28T15:30:49;0.95;;;0.40;;
46755;SDS011;32506;52.826;-1.192;2023-02-28T15:33:18;0.98;;;0.40;;
46755;SDS011;32506;52.826;-1.192;2023-02-28T15:35:46;1.27;;;0.50;;
46755;SDS011;32506;52.826;-1.192;2023-02-28T15:38:21;0.77;;;0.40;;
46755;SDS011;32506;52.826;-1.192;2023-02-28T15:40:50;2.20;;;0.50;;
46755;SDS011;32506;52.826;-1.192;2023-02-28T15:43:29;2.25;;;0.60;;
46755;SDS011;32506;52.826;-1.192;2023-02-28T15:46:14;1.25;;;0.60;;
46755;SDS011;32506;52.826;-1.192;2023-02-28T15:48:44;1.42;;;0.50;;
46755;SDS011;32506;52.826;-1.192;2023-02-28T15:51:21;2.63;;;0.60;;
46755;SDS011;32506;52.826;-1.192;2023-02-28T15:56:43;0.68;;;0.47;;
46755;SDS011;32506;52.826;-1.192;2023-02-28T15:59:16;1.48;;;0.70;;
46755;SDS011;32506;52.826;-1.192;2023-02-28T16:01:44;1.63;;;0.90;;
46755;SDS011;32506;52.826;-1.192;2023-02-28T16:04:17;1.75;;;0.95;;
46755;SDS011;32506;52.826;-1.192;2023-02-28T16:06:45;2.00;;;0.90;;
46755;SDS011;32506;52.826;-1.192;2023-02-28T16:09:15;1.48;;;0.80;;
46755;SDS011;32506;52.826;-1.192;2023-02-28T16:11:43;2.63;;;1.00;;
46755;SDS011;32506;52.826;-1.192;2023-02-28T16:14:18;1.92;;;1.30;;
46755;SDS011;32506;52.826;-1.192;2023-02-28T16:16:50;4.75;;;1.30;;
46755;SDS011;32506;52.826;-1.192;2023-02-28T16:19:18;5.78;;;1.60;;
46755;SDS011;32506;52.826;-1.192;2023-02-28T16:21:44;2.90;;;1.45;;
46755;SDS011;32506;52.826;-1.192;2023-02-28T16:24:10;3.10;;;1.67;;
46755;SDS011;32506;52.826;-1.192;2023-02-28T16:26:35;1.98;;;1.50;;
46755;SDS011;32506;52.826;-1.192;2023-02-28T16:29:04;2.40;;;1.60;;
46755;SDS011;32506;52.826;-1.192;2023-02-28T16:31:31;2.10;;;1.48;;
46755;SDS011;32506;52.826;-1.192;2023-02-28T16:34:01;3.83;;;1.92;;
46755;SDS011;32506;52.826;-1.192;2023-02-28T16:36:28;3.10;;;1.83;;
46755;SDS011;32506;52.826;-1.192;2023-02-28T16:38:54;3.50;;;1.42;;
46755;SDS011;32506;52.826;-1.192;2023-02-28T16:41:20;2.63;;;1.60;;
46755;SDS011;32506;52.826;-1.192;2023-02-28T16:43:48;1.65;;;1.30;;
46755;SDS011;32506;52.826;-1.192;2023-02-28T16:46:16;1.80;;;1.20;;
46755;SDS011;32506;52.826;-1.192;2023-02-28T16:48:43;2.65;;;1.38;;
46755;SDS011;32506;52.826;-1.192;2023-02-28T16:51:13;1.65;;;1.30;;
46755;SDS011;32506;52.826;-1.192;2023-02-28T16:53:40;1.77;;;1.27;;
46755;SDS011;32506;52.826;-1.192;2023-02-28T16:56:05;2.92;;;1.02;;
46755;SDS011;32506;52.826;-1.192;2023-02-28T16:58:35;2.72;;;1.00;;
46755;SDS011;32506;52.826;-1.192;2023-02-28T17:01:02;1.52;;;1.00;;
46755;SDS011;32506;52.826;-1.192;2023-02-28T17:03:27;1.77;;;1.45;;
46755;SDS011;32506;52.826;-1.192;2023-02-28T17:05:54;1.73;;;0.90;;
46755;SDS011;32506;52.826;-1.192;2023-02-28T17:08:20;3.30;;;1.10;;
46755;SDS011;32506;52.826;-1.192;2023-02-28T17:10:45;1.60;;;0.90;;
46755;SDS011;32506;52.826;-1.192;2023-02-28T17:13:11;1.50;;;1.02;;
46755;SDS011;32506;52.826;-1.192;2023-02-28T17:15:37;2.88;;;2.05;;
46755;SDS011;32506;52.826;-1.192;2023-02-28T17:18:03;2.35;;;1.10;;
46755;SDS011;32506;52.826;-1.192;2023-02-28T17:20:30;1.75;;;1.15;;
46755;SDS011;32506;52.826;-1.192;2023-02-28T17:22:55;1.48;;;1.17;;
46755;SDS011;32506;52.826;-1.192;2023-02-28T17:25:22;1.88;;;0.80;;
46755;SDS011;32506;52.826;-1.192;2023-02-28T17:27:48;2.00;;;1.05;;
46755;SDS011;32506;52.826;-1.192;2023-02-28T17:30:17;1.90;;;1.20;;
46755;SDS011;32506;52.826;-1.192;2023-02-28T17:32:44;1.67;;;1.08;;
46755;SDS011;32506;52.826;-1.192;2023-02-28T17:35:10;2.05;;;1.00;;